Philadelphia, PA (19119)

6:49 AM EDT on July 27, 2016 (GMT -0400)
West Mount Airy | | Change Station

Elev 346 ft 40.06 °N, 75.19 °W | Updated 16 seconds ago

Clear
Clear
76.7 °F
Feels Like 79 °F
N
1.2
Wind Variable Wind from North
Gusts 0.0 mph

Today
High -- | Low -- °F
--% Chance of Precip.
Yesterday
High -- | Low -- °F
Precip. -- in
Pressure 29.95 in
Visibility 10.0 miles
Clouds Clear
Heat Index 79 °F
Dew Point 61 °F
Humidity 59%
Rainfall 0.00 in
Snow Depth Not available.
5:54 AM 8:19 PM
Last Quarter, 44% visible
METAR KLOM 271035Z AUTO 00000KT 10SM CLR 20/18 A2995 RMK AO1
Pressure 29.95 in
Visibility 10.0 miles
Clouds Clear
Heat Index 79 °F
Dew Point 61 °F
Humidity 59%
Rainfall 0.00 in
Snow Depth Not available.
5:54 AM 8:19 PM
Last Quarter, 44% visible
METAR KLOM 271035Z AUTO 00000KT 10SM CLR 20/18 A2995 RMK AO1

10-Day Weather Forecast

Almanac

Astronomy

Jul. 27, 2016 Rise Set
Actual Time
Civil Twilight
Nautical Twilight
Astronomical Twilight
Moon
Length of Visible Light
Length of Day
Tomorrow will be .
, % of the Moon is Illuminated

Today's Extremes

State Highs State Lows

Community

WunderPhotos

Upload Photos

1,927,825 photos uploaded!

WunderBlog® & News

Nearby

Air Quality

  Air Quality AQ Index Pollutant
Not available.

Snow Depth

Station Depth Elevation

Earthquake Activity

City Distance Mag. Time & Date
Minimum magnitude displayed is 2.5.

Coastal Water Temperatures

Place Temperature

Stations

Nearby Weather Stations

Station Location Temp. Windchill Dew Point Humidity Wind Precip. Elev Updated Type
                   

Watches & Warnings

There are currently no watches in effect.